sensor_id;sensor_type;location;lat;lon;timestamp;temperature;humidity
5176;DHT22;2607;50.934;6.934;2022-07-05T00:01:38;19.70;95.00
5176;DHT22;2607;50.934;6.934;2022-07-05T00:04:04;19.70;95.20
5176;DHT22;2607;50.934;6.934;2022-07-05T00:06:29;19.60;95.20
5176;DHT22;2607;50.934;6.934;2022-07-05T00:08:55;19.60;95.40
5176;DHT22;2607;50.934;6.934;2022-07-05T00:11:21;19.60;95.50
5176;DHT22;2607;50.934;6.934;2022-07-05T00:13:46;19.50;95.50
5176;DHT22;2607;50.934;6.934;2022-07-05T00:16:12;19.50;95.60
5176;DHT22;2607;50.934;6.934;2022-07-05T00:18:37;19.50;95.80
5176;DHT22;2607;50.934;6.934;2022-07-05T00:21:03;19.40;95.90
5176;DHT22;2607;50.934;6.934;2022-07-05T00:23:28;19.30;96.20
5176;DHT22;2607;50.934;6.934;2022-07-05T00:25:54;19.30;96.60
5176;DHT22;2607;50.934;6.934;2022-07-05T00:28:20;19.20;96.90
5176;DHT22;2607;50.934;6.934;2022-07-05T00:30:45;19.20;96.90
5176;DHT22;2607;50.934;6.934;2022-07-05T00:33:11;19.10;97.20
5176;DHT22;2607;50.934;6.934;2022-07-05T00:35:36;19.10;97.50
5176;DHT22;2607;50.934;6.934;2022-07-05T00:38:02;19.10;97.80
5176;DHT22;2607;50.934;6.934;2022-07-05T00:40:27;19.00;97.90
5176;DHT22;2607;50.934;6.934;2022-07-05T00:42:53;19.00;98.00
5176;DHT22;2607;50.934;6.934;2022-07-05T00:45:19;18.90;98.20
5176;DHT22;2607;50.934;6.934;2022-07-05T00:47:44;18.90;98.30
5176;DHT22;2607;50.934;6.934;2022-07-05T00:50:10;18.90;98.50
5176;DHT22;2607;50.934;6.934;2022-07-05T00:52:36;18.90;98.70
5176;DHT22;2607;50.934;6.934;2022-07-05T00:55:02;18.80;98.70
5176;DHT22;2607;50.934;6.934;2022-07-05T00:57:27;18.80;98.90
5176;DHT22;2607;50.934;6.934;2022-07-05T00:59:53;18.70;98.90
5176;DHT22;2607;50.934;6.934;2022-07-05T01:02:19;18.70;99.50
5176;DHT22;2607;50.934;6.934;2022-07-05T01:04:47;18.70;99.30
5176;DHT22;2607;50.934;6.934;2022-07-05T01:07:13;18.70;99.40
5176;DHT22;2607;50.934;6.934;2022-07-05T01:09:38;18.60;99.40
5176;DHT22;2607;50.934;6.934;2022-07-05T01:12:04;18.60;99.50
5176;DHT22;2607;50.934;6.934;2022-07-05T01:14:30;18.60;99.60
5176;DHT22;2607;50.934;6.934;2022-07-05T01:16:56;18.60;99.70
5176;DHT22;2607;50.934;6.934;2022-07-05T01:19:22;18.50;99.80
5176;DHT22;2607;50.934;6.934;2022-07-05T01:21:49;18.50;99.90
5176;DHT22;2607;50.934;6.934;2022-07-05T01:24:17;18.50;99.90
5176;DHT22;2607;50.934;6.934;2022-07-05T01:26:47;18.50;99.90
5176;DHT22;2607;50.934;6.934;2022-07-05T01:29:13;18.50;99.90
5176;DHT22;2607;50.934;6.934;2022-07-05T01:31:42;18.50;99.90
5176;DHT22;2607;50.934;6.934;2022-07-05T01:34:08;18.40;99.90
5176;DHT22;2607;50.934;6.934;2022-07-05T01:36:35;18.50;99.90
5176;DHT22;2607;50.934;6.934;2022-07-05T01:39:03;18.40;99.90
5176;DHT22;2607;50.934;6.934;2022-07-05T01:41:29;18.40;99.90
5176;DHT22;2607;50.934;6.934;2022-07-05T01:43:54;18.40;99.90
5176;DHT22;2607;50.934;6.934;2022-07-05T01:46:21;18.30;99.90
5176;DHT22;2607;50.934;6.934;2022-07-05T01:48:49;18.30;99.90
5176;DHT22;2607;50.934;6.934;2022-07-05T01:51:20;18.20;99.90
5176;DHT22;2607;50.934;6.934;2022-07-05T01:53:50;18.20;99.90
5176;DHT22;2607;50.934;6.934;2022-07-05T01:56:17;18.20;99.90
5176;DHT22;2607;50.934;6.934;2022-07-05T01:58:43;18.10;99.90
5176;DHT22;2607;50.934;6.934;2022-07-05T02:01:09;18.10;99.90
5176;DHT22;2607;50.934;6.934;2022-07-05T02:03:36;18.00;99.90
5176;DHT22;2607;50.934;6.934;2022-07-05T02:06:02;18.00;99.90
5176;DHT22;2607;50.934;6.934;2022-07-05T02:08:30;18.00;99.90
5176;DHT22;2607;50.934;6.934;2022-07-05T02:10:57;17.90;99.90
5176;DHT22;2607;50.934;6.934;2022-07-05T02:13:22;17.90;99.90
5176;DHT22;2607;50.934;6.934;2022-07-05T02:15:48;17.90;99.90
5176;DHT22;2607;50.934;6.934;2022-07-05T02:18:14;17.90;99.90
5176;DHT22;2607;50.934;6.934;2022-07-05T02:20:40;17.90;99.90
5176;DHT22;2607;50.934;6.934;2022-07-05T02:23:06;17.90;99.90
5176;DHT22;2607;50.934;6.934;2022-07-05T02:25:32;17.80;99.90
5176;DHT22;2607;50.934;6.934;2022-07-05T02:27:58;17.80;99.90
5176;DHT22;2607;50.934;6.934;2022-07-05T02:30:24;17.80;99.90
5176;DHT22;2607;50.934;6.934;2022-07-05T02:32:49;17.80;99.90
5176;DHT22;2607;50.934;6.934;2022-07-05T02:35:15;17.80;99.90
5176;DHT22;2607;50.934;6.934;2022-07-05T02:37:40;17.70;99.90
5176;DHT22;2607;50.934;6.934;2022-07-05T02:40:10;17.80;99.90
5176;DHT22;2607;50.934;6.934;2022-07-05T02:42:37;17.70;99.90
5176;DHT22;2607;50.934;6.934;2022-07-05T02:45:04;17.80;99.90
5176;DHT22;2607;50.934;6.934;2022-07-05T02:47:31;17.80;99.90
5176;DHT22;2607;50.934;6.934;2022-07-05T02:50:07;17.80;99.90
5176;DHT22;2607;50.934;6.934;2022-07-05T02:52:34;17.80;99.90
5176;DHT22;2607;50.934;6.934;2022-07-05T02:55:01;17.80;99.90
5176;DHT22;2607;50.934;6.934;2022-07-05T02:57:26;17.80;99.90
5176;DHT22;2607;50.934;6.934;2022-07-05T02:59:53;17.80;99.90
5176;DHT22;2607;50.934;6.934;2022-07-05T03:02:20;17.80;99.90
5176;DHT22;2607;50.934;6.934;2022-07-05T03:04:45;17.80;99.90
5176;DHT22;2607;50.934;6.934;2022-07-05T03:07:11;17.80;99.90
5176;DHT22;2607;50.934;6.934;2022-07-05T03:09:36;17.80;99.90
5176;DHT22;2607;50.934;6.934;2022-07-05T03:12:02;17.80;99.90
5176;DHT22;2607;50.934;6.934;2022-07-05T03:14:28;17.80;99.90
5176;DHT22;2607;50.934;6.934;2022-07-05T03:16:53;17.80;99.90
5176;DHT22;2607;50.934;6.934;2022-07-05T03:19:19;17.90;99.90
5176;DHT22;2607;50.934;6.934;2022-07-05T03:21:44;17.90;99.90
5176;DHT22;2607;50.934;6.934;2022-07-05T03:24:10;17.90;99.90
5176;DHT22;2607;50.934;6.934;2022-07-05T03:26:36;17.90;99.90
5176;DHT22;2607;50.934;6.934;2022-07-05T03:29:02;17.90;99.90
5176;DHT22;2607;50.934;6.934;2022-07-05T03:31:27;17.90;99.90
5176;DHT22;2607;50.934;6.934;2022-07-05T03:33:53;17.90;99.90
5176;DHT22;2607;50.934;6.934;2022-07-05T03:36:18;17.90;99.90
5176;DHT22;2607;50.934;6.934;2022-07-05T03:38:44;17.90;99.90
5176;DHT22;2607;50.934;6.934;2022-07-05T03:41:09;17.90;99.90
5176;DHT22;2607;50.934;6.934;2022-07-05T03:43:35;17.90;99.90
5176;DHT22;2607;50.934;6.934;2022-07-05T03:46:00;17.80;99.90
5176;DHT22;2607;50.934;6.934;2022-07-05T03:48:26;17.80;99.90
5176;DHT22;2607;50.934;6.934;2022-07-05T03:50:51;17.70;99.90
5176;DHT22;2607;50.934;6.934;2022-07-05T03:53:17;17.70;99.90
5176;DHT22;2607;50.934;6.934;2022-07-05T03:55:43;17.60;99.90
5176;DHT22;2607;50.934;6.934;2022-07-05T03:58:08;17.60;99.90
5176;DHT22;2607;50.934;6.934;2022-07-05T04:00:34;17.60;99.90
5176;DHT22;2607;50.934;6.934;2022-07-05T04:03:00;17.60;99.90
5176;DHT22;2607;50.934;6.934;2022-07-05T04:05:26;17.50;99.90
5176;DHT22;2607;50.934;6.934;2022-07-05T04:07:53;17.50;99.90
5176;DHT22;2607;50.934;6.934;2022-07-05T04:10:20;17.40;99.90
5176;DHT22;2607;50.934;6.934;2022-07-05T04:12:46;17.40;99.90
5176;DHT22;2607;50.934;6.934;2022-07-05T04:15:13;17.40;99.90
5176;DHT22;2607;50.934;6.934;2022-07-05T04:17:53;17.30;99.90
5176;DHT22;2607;50.934;6.934;2022-07-05T04:20:20;17.40;99.90
5176;DHT22;2607;50.934;6.934;2022-07-05T04:22:47;17.30;99.90
5176;DHT22;2607;50.934;6.934;2022-07-05T04:25:12;17.40;99.90
5176;DHT22;2607;50.934;6.934;2022-07-05T04:27:45;17.40;99.90
5176;DHT22;2607;50.934;6.934;2022-07-05T04:30:11;17.40;99.90
5176;DHT22;2607;50.934;6.934;2022-07-05T04:32:37;17.40;99.90
5176;DHT22;2607;50.934;6.934;2022-07-05T04:35:03;17.40;99.90
5176;DHT22;2607;50.934;6.934;2022-07-05T04:37:28;17.40;99.90
5176;DHT22;2607;50.934;6.934;2022-07-05T04:39:54;17.40;99.90
5176;DHT22;2607;50.934;6.934;2022-07-05T04:42:19;17.50;99.90
5176;DHT22;2607;50.934;6.934;2022-07-05T04:44:45;17.50;99.90
5176;DHT22;2607;50.934;6.934;2022-07-05T04:47:11;17.50;99.90
5176;DHT22;2607;50.934;6.934;2022-07-05T04:49:36;17.60;99.90
5176;DHT22;2607;50.934;6.934;2022-07-05T04:52:02;17.60;99.90
5176;DHT22;2607;50.934;6.934;2022-07-05T04:54:27;17.60;99.90
5176;DHT22;2607;50.934;6.934;2022-07-05T04:56:53;17.70;99.90
5176;DHT22;2607;50.934;6.934;2022-07-05T04:59:20;17.70;99.90
5176;DHT22;2607;50.934;6.934;2022-07-05T05:01:45;17.60;99.90
5176;DHT22;2607;50.934;6.934;2022-07-05T05:04:11;17.60;99.90
5176;DHT22;2607;50.934;6.934;2022-07-05T05:06:37;17.60;99.90
5176;DHT22;2607;50.934;6.934;2022-07-05T05:09:02;17.60;99.90
5176;DHT22;2607;50.934;6.934;2022-07-05T05:11:28;17.60;99.90
5176;DHT22;2607;50.934;6.934;2022-07-05T05:13:54;17.60;99.90
5176;DHT22;2607;50.934;6.934;2022-07-05T05:16:20;17.60;99.90
5176;DHT22;2607;50.934;6.934;2022-07-05T05:18:45;17.70;99.90
5176;DHT22;2607;50.934;6.934;2022-07-05T05:21:11;17.70;99.90
5176;DHT22;2607;50.934;6.934;2022-07-05T05:23:37;17.70;99.90
5176;DHT22;2607;50.934;6.934;2022-07-05T05:26:02;17.70;99.90
5176;DHT22;2607;50.934;6.934;2022-07-05T05:28:28;17.70;99.90
5176;DHT22;2607;50.934;6.934;2022-07-05T05:30:54;17.70;99.90
5176;DHT22;2607;50.934;6.934;2022-07-05T05:33:19;17.80;99.90
5176;DHT22;2607;50.934;6.934;2022-07-05T05:35:45;17.80;99.90
5176;DHT22;2607;50.934;6.934;2022-07-05T05:38:10;17.90;99.90
5176;DHT22;2607;50.934;6.934;2022-07-05T05:40:36;17.90;99.90
5176;DHT22;2607;50.934;6.934;2022-07-05T05:43:06;17.90;99.90
5176;DHT22;2607;50.934;6.934;2022-07-05T05:45:32;18.00;99.90
5176;DHT22;2607;50.934;6.934;2022-07-05T05:47:58;18.00;99.90
5176;DHT22;2607;50.934;6.934;2022-07-05T05:50:32;18.10;99.90
5176;DHT22;2607;50.934;6.934;2022-07-05T05:52:58;18.10;99.80
5176;DHT22;2607;50.934;6.934;2022-07-05T05:55:25;18.20;99.60
5176;DHT22;2607;50.934;6.934;2022-07-05T05:57:52;18.20;99.40
5176;DHT22;2607;50.934;6.934;2022-07-05T06:00:18;18.20;99.30
5176;DHT22;2607;50.934;6.934;2022-07-05T06:02:45;18.30;99.30
5176;DHT22;2607;50.934;6.934;2022-07-05T06:05:11;18.30;99.10
5176;DHT22;2607;50.934;6.934;2022-07-05T06:08:03;18.30;99.00
5176;DHT22;2607;50.934;6.934;2022-07-05T06:10:31;18.40;98.90
5176;DHT22;2607;50.934;6.934;2022-07-05T06:12:59;18.40;98.70
5176;DHT22;2607;50.934;6.934;2022-07-05T06:15:24;18.40;98.60
5176;DHT22;2607;50.934;6.934;2022-07-05T06:17:50;18.40;98.50
5176;DHT22;2607;50.934;6.934;2022-07-05T06:20:18;18.50;98.50
5176;DHT22;2607;50.934;6.934;2022-07-05T06:22:44;18.50;98.50
5176;DHT22;2607;50.934;6.934;2022-07-05T06:25:10;18.50;98.20
5176;DHT22;2607;50.934;6.934;2022-07-05T06:27:44;18.60;98.10
5176;DHT22;2607;50.934;6.934;2022-07-05T06:30:12;18.60;98.00
5176;DHT22;2607;50.934;6.934;2022-07-05T06:32:38;18.70;97.70
5176;DHT22;2607;50.934;6.934;2022-07-05T06:35:04;18.70;97.50
5176;DHT22;2607;50.934;6.934;2022-07-05T06:37:47;18.70;97.30
5176;DHT22;2607;50.934;6.934;2022-07-05T06:40:20;18.80;97.20
5176;DHT22;2607;50.934;6.934;2022-07-05T06:42:46;18.80;97.00
5176;DHT22;2607;50.934;6.934;2022-07-05T06:45:12;18.90;96.90
5176;DHT22;2607;50.934;6.934;2022-07-05T06:47:38;18.90;96.70
5176;DHT22;2607;50.934;6.934;2022-07-05T06:50:04;19.00;96.60
5176;DHT22;2607;50.934;6.934;2022-07-05T06:52:31;19.00;96.60
5176;DHT22;2607;50.934;6.934;2022-07-05T06:54:58;19.00;96.50
5176;DHT22;2607;50.934;6.934;2022-07-05T06:57:24;19.10;96.40
5176;DHT22;2607;50.934;6.934;2022-07-05T06:59:50;19.10;96.20
5176;DHT22;2607;50.934;6.934;2022-07-05T07:02:16;19.10;96.10
5176;DHT22;2607;50.934;6.934;2022-07-05T07:04:42;19.20;95.90
5176;DHT22;2607;50.934;6.934;2022-07-05T07:07:08;19.20;95.80
5176;DHT22;2607;50.934;6.934;2022-07-05T07:09:59;19.30;95.80
5176;DHT22;2607;50.934;6.934;2022-07-05T07:12:25;19.30;95.20
5176;DHT22;2607;50.934;6.934;2022-07-05T07:14:51;19.40;95.00
5176;DHT22;2607;50.934;6.934;2022-07-05T07:17:17;19.40;94.90
5176;DHT22;2607;50.934;6.934;2022-07-05T07:19:42;19.40;94.60
5176;DHT22;2607;50.934;6.934;2022-07-05T07:22:08;19.50;94.30
5176;DHT22;2607;50.934;6.934;2022-07-05T07:24:33;19.50;93.70
5176;DHT22;2607;50.934;6.934;2022-07-05T07:26:59;19.50;93.60
5176;DHT22;2607;50.934;6.934;2022-07-05T07:29:28;19.50;93.50
5176;DHT22;2607;50.934;6.934;2022-07-05T07:31:55;19.60;93.70
5176;DHT22;2607;50.934;6.934;2022-07-05T07:34:21;19.60;93.70
5176;DHT22;2607;50.934;6.934;2022-07-05T07:36:47;19.70;94.10
5176;DHT22;2607;50.934;6.934;2022-07-05T07:39:13;19.70;93.90
5176;DHT22;2607;50.934;6.934;2022-07-05T07:41:38;19.80;94.00
5176;DHT22;2607;50.934;6.934;2022-07-05T07:44:04;19.90;93.80
5176;DHT22;2607;50.934;6.934;2022-07-05T07:46:29;20.00;93.70
5176;DHT22;2607;50.934;6.934;2022-07-05T07:48:55;20.00;93.70
5176;DHT22;2607;50.934;6.934;2022-07-05T07:51:21;20.10;93.70
5176;DHT22;2607;50.934;6.934;2022-07-05T07:53:47;20.10;93.50
5176;DHT22;2607;50.934;6.934;2022-07-05T07:56:12;20.20;93.10
5176;DHT22;2607;50.934;6.934;2022-07-05T07:58:38;20.20;92.80
5176;DHT22;2607;50.934;6.934;2022-07-05T08:01:04;20.30;92.50
5176;DHT22;2607;50.934;6.934;2022-07-05T08:03:32;20.30;92.30
5176;DHT22;2607;50.934;6.934;2022-07-05T08:05:57;20.30;92.20
5176;DHT22;2607;50.934;6.934;2022-07-05T08:08:23;20.30;92.20
5176;DHT22;2607;50.934;6.934;2022-07-05T08:10:48;20.30;92.30
5176;DHT22;2607;50.934;6.934;2022-07-05T08:13:14;20.30;92.50
5176;DHT22;2607;50.934;6.934;2022-07-05T08:15:40;20.40;92.60
5176;DHT22;2607;50.934;6.934;2022-07-05T08:18:05;20.40;92.50
5176;DHT22;2607;50.934;6.934;2022-07-05T08:20:50;20.50;92.10
5176;DHT22;2607;50.934;6.934;2022-07-05T08:23:34;20.60;91.90
5176;DHT22;2607;50.934;6.934;2022-07-05T08:26:00;20.60;91.70
5176;DHT22;2607;50.934;6.934;2022-07-05T08:28:26;20.60;91.20
5176;DHT22;2607;50.934;6.934;2022-07-05T08:30:51;20.60;91.60
5176;DHT22;2607;50.934;6.934;2022-07-05T08:33:17;20.60;91.70
5176;DHT22;2607;50.934;6.934;2022-07-05T08:35:43;20.60;91.50
5176;DHT22;2607;50.934;6.934;2022-07-05T08:38:08;20.70;91.20
5176;DHT22;2607;50.934;6.934;2022-07-05T08:40:37;20.80;90.00
5176;DHT22;2607;50.934;6.934;2022-07-05T08:43:05;20.80;87.30
5176;DHT22;2607;50.934;6.934;2022-07-05T08:45:33;20.80;87.00
5176;DHT22;2607;50.934;6.934;2022-07-05T08:48:00;20.80;86.70
5176;DHT22;2607;50.934;6.934;2022-07-05T08:50:26;20.90;87.80
5176;DHT22;2607;50.934;6.934;2022-07-05T08:52:53;20.90;87.90
5176;DHT22;2607;50.934;6.934;2022-07-05T08:55:18;21.10;86.60
5176;DHT22;2607;50.934;6.934;2022-07-05T08:57:44;21.10;85.60
5176;DHT22;2607;50.934;6.934;2022-07-05T09:00:11;21.20;85.40
5176;DHT22;2607;50.934;6.934;2022-07-05T09:02:36;21.30;85.10
5176;DHT22;2607;50.934;6.934;2022-07-05T09:05:04;21.40;84.80
5176;DHT22;2607;50.934;6.934;2022-07-05T09:07:32;21.40;85.00
5176;DHT22;2607;50.934;6.934;2022-07-05T09:10:00;21.50;84.50
5176;DHT22;2607;50.934;6.934;2022-07-05T09:12:27;21.60;84.20
5176;DHT22;2607;50.934;6.934;2022-07-05T09:14:54;21.70;83.50
5176;DHT22;2607;50.934;6.934;2022-07-05T09:17:20;21.70;83.00
5176;DHT22;2607;50.934;6.934;2022-07-05T09:20:13;21.70;82.20
5176;DHT22;2607;50.934;6.934;2022-07-05T09:22:50;21.70;81.80
5176;DHT22;2607;50.934;6.934;2022-07-05T09:30:30;22.10;81.60
5176;DHT22;2607;50.934;6.934;2022-07-05T09:35:28;22.40;80.50
5176;DHT22;2607;50.934;6.934;2022-07-05T09:37:54;22.60;79.90
5176;DHT22;2607;50.934;6.934;2022-07-05T09:40:19;22.70;79.60
5176;DHT22;2607;50.934;6.934;2022-07-05T09:42:45;22.80;79.20
5176;DHT22;2607;50.934;6.934;2022-07-05T09:45:10;22.80;79.20
5176;DHT22;2607;50.934;6.934;2022-07-05T09:47:36;22.70;78.40
5176;DHT22;2607;50.934;6.934;2022-07-05T09:50:02;22.80;77.70
5176;DHT22;2607;50.934;6.934;2022-07-05T09:52:33;22.90;77.30
5176;DHT22;2607;50.934;6.934;2022-07-05T09:55:07;23.00;77.10
5176;DHT22;2607;50.934;6.934;2022-07-05T09:57:35;23.20;76.60
5176;DHT22;2607;50.934;6.934;2022-07-05T10:02:39;23.20;75.50
5176;DHT22;2607;50.934;6.934;2022-07-05T10:05:13;23.10;75.30
5176;DHT22;2607;50.934;6.934;2022-07-05T10:07:54;23.10;75.30
5176;DHT22;2607;50.934;6.934;2022-07-05T10:10:28;23.20;75.10
5176;DHT22;2607;50.934;6.934;2022-07-05T10:13:02;23.40;73.60
5176;DHT22;2607;50.934;6.934;2022-07-05T10:15:34;23.40;73.10
5176;DHT22;2607;50.934;6.934;2022-07-05T10:18:06;23.50;73.30
5176;DHT22;2607;50.934;6.934;2022-07-05T10:25:38;23.80;72.70
5176;DHT22;2607;50.934;6.934;2022-07-05T10:28:04;23.70;72.90
5176;DHT22;2607;50.934;6.934;2022-07-05T10:30:31;23.80;72.20
5176;DHT22;2607;50.934;6.934;2022-07-05T10:32:58;23.90;71.50
5176;DHT22;2607;50.934;6.934;2022-07-05T10:35:24;24.00;71.10
5176;DHT22;2607;50.934;6.934;2022-07-05T10:37:50;24.10;70.80
5176;DHT22;2607;50.934;6.934;2022-07-05T10:40:16;24.10;70.60
5176;DHT22;2607;50.934;6.934;2022-07-05T10:42:55;24.20;70.10
5176;DHT22;2607;50.934;6.934;2022-07-05T10:58:46;23.50;71.60
5176;DHT22;2607;50.934;6.934;2022-07-05T11:03:41;23.60;72.70
5176;DHT22;2607;50.934;6.934;2022-07-05T11:06:08;23.90;70.90
5176;DHT22;2607;50.934;6.934;2022-07-05T11:13:57;24.00;70.40
5176;DHT22;2607;50.934;6.934;2022-07-05T11:16:35;24.10;70.10
5176;DHT22;2607;50.934;6.934;2022-07-05T11:19:08;24.10;69.60
5176;DHT22;2607;50.934;6.934;2022-07-05T11:21:35;24.20;68.60
5176;DHT22;2607;50.934;6.934;2022-07-05T11:26:48;24.50;68.20
5176;DHT22;2607;50.934;6.934;2022-07-05T11:29:45;24.70;68.50
5176;DHT22;2607;50.934;6.934;2022-07-05T11:32:15;24.80;67.90
5176;DHT22;2607;50.934;6.934;2022-07-05T11:34:43;24.80;67.70
5176;DHT22;2607;50.934;6.934;2022-07-05T11:37:19;24.90;68.80
5176;DHT22;2607;50.934;6.934;2022-07-05T11:42:37;24.70;69.00
5176;DHT22;2607;50.934;6.934;2022-07-05T11:45:08;24.70;69.10
5176;DHT22;2607;50.934;6.934;2022-07-05T11:47:35;24.80;68.30
5176;DHT22;2607;50.934;6.934;2022-07-05T11:50:01;24.90;67.10
5176;DHT22;2607;50.934;6.934;2022-07-05T11:52:31;25.00;67.20
5176;DHT22;2607;50.934;6.934;2022-07-05T11:54:57;25.10;65.70
5176;DHT22;2607;50.934;6.934;2022-07-05T11:57:24;25.20;65.50
5176;DHT22;2607;50.934;6.934;2022-07-05T11:59:50;25.30;65.10
5176;DHT22;2607;50.934;6.934;2022-07-05T12:02:17;25.30;64.30
5176;DHT22;2607;50.934;6.934;2022-07-05T12:04:54;25.30;65.20
5176;DHT22;2607;50.934;6.934;2022-07-05T12:07:30;25.30;65.30
5176;DHT22;2607;50.934;6.934;2022-07-05T12:09:57;25.30;65.10
5176;DHT22;2607;50.934;6.934;2022-07-05T12:12:42;25.40;64.60
5176;DHT22;2607;50.934;6.934;2022-07-05T12:15:14;25.20;65.60
5176;DHT22;2607;50.934;6.934;2022-07-05T12:17:42;25.10;65.00
5176;DHT22;2607;50.934;6.934;2022-07-05T12:20:10;25.00;65.50
5176;DHT22;2607;50.934;6.934;2022-07-05T12:22:41;25.10;65.10
5176;DHT22;2607;50.934;6.934;2022-07-05T12:25:10;25.20;64.10
5176;DHT22;2607;50.934;6.934;2022-07-05T12:27:39;25.40;64.10
5176;DHT22;2607;50.934;6.934;2022-07-05T12:30:06;25.50;63.00
5176;DHT22;2607;50.934;6.934;2022-07-05T12:32:34;25.70;62.40
5176;DHT22;2607;50.934;6.934;2022-07-05T12:35:36;25.90;59.90
5176;DHT22;2607;50.934;6.934;2022-07-05T12:38:05;25.60;59.60
5176;DHT22;2607;50.934;6.934;2022-07-05T12:40:31;25.50;60.50
5176;DHT22;2607;50.934;6.934;2022-07-05T12:45:26;25.50;59.80
5176;DHT22;2607;50.934;6.934;2022-07-05T12:47:54;25.50;60.00
5176;DHT22;2607;50.934;6.934;2022-07-05T12:50:25;25.60;59.50
5176;DHT22;2607;50.934;6.934;2022-07-05T12:53:06;25.60;59.30
5176;DHT22;2607;50.934;6.934;2022-07-05T12:55:57;25.70;58.70
5176;DHT22;2607;50.934;6.934;2022-07-05T12:59:02;25.80;58.20
5176;DHT22;2607;50.934;6.934;2022-07-05T13:09:10;26.20;60.20
5176;DHT22;2607;50.934;6.934;2022-07-05T13:11:36;26.20;60.30
5176;DHT22;2607;50.934;6.934;2022-07-05T13:14:02;26.10;60.40
5176;DHT22;2607;50.934;6.934;2022-07-05T13:16:27;26.00;60.00
5176;DHT22;2607;50.934;6.934;2022-07-05T13:18:53;25.90;60.60
5176;DHT22;2607;50.934;6.934;2022-07-05T13:21:18;25.70;60.00
5176;DHT22;2607;50.934;6.934;2022-07-05T13:23:44;25.50;59.60
5176;DHT22;2607;50.934;6.934;2022-07-05T13:26:10;25.40;59.60
5176;DHT22;2607;50.934;6.934;2022-07-05T13:28:36;25.40;60.10
5176;DHT22;2607;50.934;6.934;2022-07-05T13:31:01;25.50;60.50
5176;DHT22;2607;50.934;6.934;2022-07-05T13:33:27;25.60;60.20
5176;DHT22;2607;50.934;6.934;2022-07-05T13:35:52;25.90;59.70
5176;DHT22;2607;50.934;6.934;2022-07-05T13:38:18;26.00;59.40
5176;DHT22;2607;50.934;6.934;2022-07-05T13:40:45;26.00;59.30
5176;DHT22;2607;50.934;6.934;2022-07-05T13:43:10;26.00;59.30
5176;DHT22;2607;50.934;6.934;2022-07-05T13:45:36;25.90;59.40
5176;DHT22;2607;50.934;6.934;2022-07-05T13:48:01;25.80;59.50
5176;DHT22;2607;50.934;6.934;2022-07-05T13:50:27;25.60;60.00
5176;DHT22;2607;50.934;6.934;2022-07-05T13:53:00;25.50;60.50
5176;DHT22;2607;50.934;6.934;2022-07-05T13:55:26;25.40;60.70
5176;DHT22;2607;50.934;6.934;2022-07-05T13:57:52;25.50;61.20
5176;DHT22;2607;50.934;6.934;2022-07-05T14:00:18;25.70;60.00
5176;DHT22;2607;50.934;6.934;2022-07-05T14:02:44;25.80;60.20
5176;DHT22;2607;50.934;6.934;2022-07-05T14:05:10;25.90;60.30
5176;DHT22;2607;50.934;6.934;2022-07-05T14:07:36;26.00;60.40
5176;DHT22;2607;50.934;6.934;2022-07-05T14:10:03;26.00;60.80
5176;DHT22;2607;50.934;6.934;2022-07-05T14:12:29;25.90;60.90
5176;DHT22;2607;50.934;6.934;2022-07-05T14:14:54;25.80;61.10
5176;DHT22;2607;50.934;6.934;2022-07-05T14:17:20;25.90;60.80
5176;DHT22;2607;50.934;6.934;2022-07-05T14:19:45;25.90;61.10
5176;DHT22;2607;50.934;6.934;2022-07-05T14:22:11;26.00;60.50
5176;DHT22;2607;50.934;6.934;2022-07-05T14:24:36;25.90;60.30
5176;DHT22;2607;50.934;6.934;2022-07-05T14:27:02;25.80;60.90
5176;DHT22;2607;50.934;6.934;2022-07-05T14:29:28;25.80;61.20
5176;DHT22;2607;50.934;6.934;2022-07-05T14:31:53;25.80;61.50
5176;DHT22;2607;50.934;6.934;2022-07-05T14:34:19;25.70;61.60
5176;DHT22;2607;50.934;6.934;2022-07-05T14:36:45;25.70;61.30
5176;DHT22;2607;50.934;6.934;2022-07-05T14:39:10;25.70;60.80
5176;DHT22;2607;50.934;6.934;2022-07-05T14:41:36;25.80;60.80
5176;DHT22;2607;50.934;6.934;2022-07-05T14:44:02;25.80;60.50
5176;DHT22;2607;50.934;6.934;2022-07-05T14:46:28;25.80;60.60
5176;DHT22;2607;50.934;6.934;2022-07-05T14:48:53;25.70;60.00
5176;DHT22;2607;50.934;6.934;2022-07-05T14:51:19;25.70;60.00
5176;DHT22;2607;50.934;6.934;2022-07-05T14:53:44;25.60;61.10
5176;DHT22;2607;50.934;6.934;2022-07-05T14:56:13;25.60;60.80
5176;DHT22;2607;50.934;6.934;2022-07-05T14:58:38;25.60;61.10
5176;DHT22;2607;50.934;6.934;2022-07-05T15:01:04;25.60;61.30
5176;DHT22;2607;50.934;6.934;2022-07-05T15:03:30;25.80;59.80
5176;DHT22;2607;50.934;6.934;2022-07-05T15:05:55;25.70;58.40
5176;DHT22;2607;50.934;6.934;2022-07-05T15:08:21;25.70;59.00
5176;DHT22;2607;50.934;6.934;2022-07-05T15:10:47;25.70;59.70
5176;DHT22;2607;50.934;6.934;2022-07-05T15:13:13;25.70;59.10
5176;DHT22;2607;50.934;6.934;2022-07-05T15:15:39;25.60;59.20
5176;DHT22;2607;50.934;6.934;2022-07-05T15:18:04;25.70;59.40
5176;DHT22;2607;50.934;6.934;2022-07-05T15:20:30;25.70;59.40
5176;DHT22;2607;50.934;6.934;2022-07-05T15:22:55;25.70;59.50
5176;DHT22;2607;50.934;6.934;2022-07-05T15:25:22;25.80;59.20
5176;DHT22;2607;50.934;6.934;2022-07-05T15:27:48;25.80;58.20
5176;DHT22;2607;50.934;6.934;2022-07-05T15:30:14;25.70;58.10
5176;DHT22;2607;50.934;6.934;2022-07-05T15:32:41;25.70;58.20
5176;DHT22;2607;50.934;6.934;2022-07-05T15:35:07;25.60;58.40
5176;DHT22;2607;50.934;6.934;2022-07-05T15:37:32;25.60;58.50
5176;DHT22;2607;50.934;6.934;2022-07-05T15:39:58;25.60;58.70
5176;DHT22;2607;50.934;6.934;2022-07-05T15:42:24;25.60;58.70
5176;DHT22;2607;50.934;6.934;2022-07-05T15:44:50;25.60;58.60
5176;DHT22;2607;50.934;6.934;2022-07-05T15:47:16;25.70;58.60
5176;DHT22;2607;50.934;6.934;2022-07-05T15:49:42;25.80;58.50
5176;DHT22;2607;50.934;6.934;2022-07-05T15:52:08;25.90;58.60
5176;DHT22;2607;50.934;6.934;2022-07-05T15:54:34;25.90;59.10
5176;DHT22;2607;50.934;6.934;2022-07-05T15:57:00;25.90;59.30
5176;DHT22;2607;50.934;6.934;2022-07-05T15:59:26;25.90;59.50
5176;DHT22;2607;50.934;6.934;2022-07-05T16:01:52;26.00;59.20
5176;DHT22;2607;50.934;6.934;2022-07-05T16:04:18;25.90;60.00
5176;DHT22;2607;50.934;6.934;2022-07-05T16:06:44;25.90;60.80
5176;DHT22;2607;50.934;6.934;2022-07-05T16:09:09;25.80;61.70
5176;DHT22;2607;50.934;6.934;2022-07-05T16:11:35;25.70;61.60
5176;DHT22;2607;50.934;6.934;2022-07-05T16:14:01;25.50;62.60
5176;DHT22;2607;50.934;6.934;2022-07-05T16:16:26;25.50;63.10
5176;DHT22;2607;50.934;6.934;2022-07-05T16:18:52;25.40;63.90
5176;DHT22;2607;50.934;6.934;2022-07-05T16:21:18;25.50;64.40
5176;DHT22;2607;50.934;6.934;2022-07-05T16:23:46;25.40;64.80
5176;DHT22;2607;50.934;6.934;2022-07-05T16:26:13;25.30;65.00
5176;DHT22;2607;50.934;6.934;2022-07-05T16:28:39;25.30;65.20
5176;DHT22;2607;50.934;6.934;2022-07-05T16:31:07;25.10;65.70
5176;DHT22;2607;50.934;6.934;2022-07-05T16:33:37;25.10;66.80
5176;DHT22;2607;50.934;6.934;2022-07-05T16:36:08;25.00;67.40
5176;DHT22;2607;50.934;6.934;2022-07-05T16:38:34;25.00;67.80
5176;DHT22;2607;50.934;6.934;2022-07-05T16:41:02;25.00;67.70
5176;DHT22;2607;50.934;6.934;2022-07-05T16:43:28;24.90;67.70
5176;DHT22;2607;50.934;6.934;2022-07-05T16:45:53;24.80;68.10
5176;DHT22;2607;50.934;6.934;2022-07-05T16:48:19;24.80;68.60
5176;DHT22;2607;50.934;6.934;2022-07-05T16:50:48;24.60;68.90
5176;DHT22;2607;50.934;6.934;2022-07-05T16:53:14;24.50;69.60
5176;DHT22;2607;50.934;6.934;2022-07-05T16:55:40;24.30;70.00